createdAt,value
2023-01-08T00:00:02.977Z,8.45
2023-01-08T00:30:20.964Z,8.55
2023-01-08T01:00:38.040Z,8.65
2023-01-08T01:30:56.094Z,8.85
2023-01-08T02:01:13.743Z,8.95
2023-01-08T02:31:32.195Z,9.35
2023-01-08T03:01:49.768Z,9.5
2023-01-08T03:32:07.794Z,9.25
2023-01-08T04:02:25.309Z,8.95
2023-01-08T04:32:41.852Z,8.55
2023-01-08T05:02:59.609Z,8.3
2023-01-08T05:33:16.559Z,8.45
2023-01-08T06:03:32.703Z,8.55
2023-01-08T06:33:50.890Z,8.6
2023-01-08T07:04:09.958Z,8.45
2023-01-08T07:34:27.488Z,8.35
2023-01-08T08:04:44.143Z,9
2023-01-08T08:35:02.777Z,8.35
2023-01-08T09:05:20.315Z,8.25
2023-01-08T09:35:38.115Z,8.45
2023-01-08T10:05:56.237Z,8.65
2023-01-08T10:36:14.012Z,9.1
2023-01-08T11:06:34.527Z,9.75
2023-01-08T11:36:53.736Z,10.3
2023-01-08T12:07:10.374Z,9.95
2023-01-08T12:37:26.338Z,9.8
2023-01-08T13:07:43.230Z,9.8
2023-01-08T13:38:01.226Z,9.9
2023-01-08T14:08:18.090Z,9.95
2023-01-08T14:38:34.815Z,10.05
2023-01-08T15:08:51.176Z,9.7
2023-01-08T15:39:08.226Z,9.55
2023-01-08T16:09:26.136Z,9.35
2023-01-08T16:39:42.036Z,8.95
2023-01-08T17:09:58.875Z,8.75
2023-01-08T17:40:16.425Z,8.85
2023-01-08T18:10:34.067Z,8.9
2023-01-08T18:40:52.090Z,8.85
2023-01-08T19:11:10.006Z,8.75
2023-01-08T19:41:26.783Z,8.5
2023-01-08T20:11:42.279Z,8
2023-01-08T20:42:04.701Z,8.15
2023-01-08T21:12:23.742Z,8.4
2023-01-08T21:42:45.433Z,8.55
2023-01-08T22:13:02.538Z,8.55
2023-01-08T22:43:19.239Z,8.45
2023-01-08T23:13:36.187Z,8.3
2023-01-08T23:43:53.239Z,8.35
